sensor_id;sensor_type;location;lat;lon;timestamp;pressure;altitude;pressure_sealevel;temperature;humidity
77027;BME280;65956;52.986;17.490;2023-08-20T00:02:07;100629.95;;;21.38;77.05
77027;BME280;65956;52.986;17.490;2023-08-20T00:04:35;100624.94;;;21.37;77.08
77027;BME280;65956;52.986;17.490;2023-08-20T00:07:02;100626.60;;;21.36;77.18
77027;BME280;65956;52.986;17.490;2023-08-20T00:09:28;100632.06;;;21.34;77.17
77027;BME280;65956;52.986;17.490;2023-08-20T00:11:55;100630.64;;;21.32;77.22
77027;BME280;65956;52.986;17.490;2023-08-20T00:14:51;100631.41;;;21.31;77.29
77027;BME280;65956;52.986;17.490;2023-08-20T00:17:19;100628.05;;;21.28;77.42
77027;BME280;65956;52.986;17.490;2023-08-20T00:19:45;100629.86;;;21.20;77.49
77027;BME280;65956;52.986;17.490;2023-08-20T00:22:11;100628.48;;;21.11;77.67
77027;BME280;65956;52.986;17.490;2023-08-20T00:24:37;100626.46;;;20.99;78.08
77027;BME280;65956;52.986;17.490;2023-08-20T00:27:03;100624.02;;;20.88;78.27
77027;BME280;65956;52.986;17.490;2023-08-20T00:29:29;100625.45;;;20.76;78.60
77027;BME280;65956;52.986;17.490;2023-08-20T00:31:55;100622.40;;;20.67;78.88
77027;BME280;65956;52.986;17.490;2023-08-20T00:34:22;100622.58;;;20.61;78.97
77027;BME280;65956;52.986;17.490;2023-08-20T00:36:48;100620.38;;;20.54;79.19
77027;BME280;65956;52.986;17.490;2023-08-20T00:39:14;100619.86;;;20.47;79.56
77027;BME280;65956;52.986;17.490;2023-08-20T00:41:42;100620.42;;;20.39;79.69
77027;BME280;65956;52.986;17.490;2023-08-20T00:44:08;100624.05;;;20.30;80.04
77027;BME280;65956;52.986;17.490;2023-08-20T00:46:34;100619.59;;;20.25;80.40
77027;BME280;65956;52.986;17.490;2023-08-20T00:49:00;100616.09;;;20.23;80.55
77027;BME280;65956;52.986;17.490;2023-08-20T00:51:27;100613.51;;;20.22;80.76
77027;BME280;65956;52.986;17.490;2023-08-20T00:53:54;100611.55;;;20.27;81.29
77027;BME280;65956;52.986;17.490;2023-08-20T00:56:21;100608.85;;;20.34;81.46
77027;BME280;65956;52.986;17.490;2023-08-20T00:58:47;100609.44;;;20.42;81.47
77027;BME280;65956;52.986;17.490;2023-08-20T01:01:13;100612.55;;;20.49;81.20
77027;BME280;65956;52.986;17.490;2023-08-20T01:03:39;100607.77;;;20.53;81.34
77027;BME280;65956;52.986;17.490;2023-08-20T01:06:31;100609.58;;;20.57;81.62
77027;BME280;65956;52.986;17.490;2023-08-20T01:09:09;100609.36;;;20.59;81.52
77027;BME280;65956;52.986;17.490;2023-08-20T01:11:46;100608.36;;;20.60;81.60
77027;BME280;65956;52.986;17.490;2023-08-20T01:14:16;100610.11;;;20.62;81.69
77027;BME280;65956;52.986;17.490;2023-08-20T01:16:43;100609.92;;;20.63;81.73
77027;BME280;65956;52.986;17.490;2023-08-20T01:19:16;100610.82;;;20.63;81.91
77027;BME280;65956;52.986;17.490;2023-08-20T01:25:00;100614.80;;;20.62;81.88
77027;BME280;65956;52.986;17.490;2023-08-20T01:27:52;100617.52;;;20.60;82.03
77027;BME280;65956;52.986;17.490;2023-08-20T01:30:27;100617.38;;;20.58;82.33
77027;BME280;65956;52.986;17.490;2023-08-20T01:32:54;100620.84;;;20.56;82.48
77027;BME280;65956;52.986;17.490;2023-08-20T01:35:20;100616.39;;;20.56;82.74
77027;BME280;65956;52.986;17.490;2023-08-20T01:37:46;100620.36;;;20.55;82.63
77027;BME280;65956;52.986;17.490;2023-08-20T01:40:12;100621.12;;;20.53;82.72
77027;BME280;65956;52.986;17.490;2023-08-20T01:42:39;100614.56;;;20.49;82.61
77027;BME280;65956;52.986;17.490;2023-08-20T01:45:06;100613.09;;;20.42;82.09
77027;BME280;65956;52.986;17.490;2023-08-20T01:47:35;100615.59;;;20.33;81.90
77027;BME280;65956;52.986;17.490;2023-08-20T01:50:01;100616.40;;;20.27;81.69
77027;BME280;65956;52.986;17.490;2023-08-20T01:52:27;100617.49;;;20.20;81.82
77027;BME280;65956;52.986;17.490;2023-08-20T01:54:55;100617.86;;;20.07;82.12
77027;BME280;65956;52.986;17.490;2023-08-20T01:57:21;100619.36;;;19.96;82.30
77027;BME280;65956;52.986;17.490;2023-08-20T01:59:47;100625.38;;;19.88;82.50
77027;BME280;65956;52.986;17.490;2023-08-20T02:02:13;100630.33;;;19.81;82.31
77027;BME280;65956;52.986;17.490;2023-08-20T02:04:39;100631.16;;;19.74;82.40
77027;BME280;65956;52.986;17.490;2023-08-20T02:07:05;100632.30;;;19.68;82.54
77027;BME280;65956;52.986;17.490;2023-08-20T02:09:32;100636.45;;;19.61;82.86
77027;BME280;65956;52.986;17.490;2023-08-20T02:11:58;100638.74;;;19.54;83.23
77027;BME280;65956;52.986;17.490;2023-08-20T02:14:24;100642.38;;;19.48;83.51
77027;BME280;65956;52.986;17.490;2023-08-20T02:16:52;100643.73;;;19.43;83.91
77027;BME280;65956;52.986;17.490;2023-08-20T02:19:18;100648.10;;;19.41;84.27
77027;BME280;65956;52.986;17.490;2023-08-20T02:21:45;100645.39;;;19.39;84.22
77027;BME280;65956;52.986;17.490;2023-08-20T02:24:11;100649.63;;;19.36;84.29
77027;BME280;65956;52.986;17.490;2023-08-20T02:26:37;100650.05;;;19.33;84.83
77027;BME280;65956;52.986;17.490;2023-08-20T02:29:03;100647.52;;;19.30;85.35
77027;BME280;65956;52.986;17.490;2023-08-20T02:31:31;100647.63;;;19.28;85.77
77027;BME280;65956;52.986;17.490;2023-08-20T02:33:57;100649.11;;;19.32;86.91
77027;BME280;65956;52.986;17.490;2023-08-20T02:36:23;100648.77;;;19.38;87.42
77027;BME280;65956;52.986;17.490;2023-08-20T02:38:49;100656.20;;;19.47;87.81
77027;BME280;65956;52.986;17.490;2023-08-20T02:41:15;100652.16;;;19.54;87.68
77027;BME280;65956;52.986;17.490;2023-08-20T02:43:41;100655.34;;;19.62;87.94
77027;BME280;65956;52.986;17.490;2023-08-20T02:46:07;100650.64;;;19.69;87.87
77027;BME280;65956;52.986;17.490;2023-08-20T02:48:34;100649.98;;;19.75;87.67
77027;BME280;65956;52.986;17.490;2023-08-20T02:51:00;100651.62;;;19.79;87.51
77027;BME280;65956;52.986;17.490;2023-08-20T02:53:26;100653.19;;;19.82;87.54
77027;BME280;65956;52.986;17.490;2023-08-20T02:55:52;100653.30;;;19.84;87.56
77027;BME280;65956;52.986;17.490;2023-08-20T02:58:18;100654.19;;;19.86;87.60
77027;BME280;65956;52.986;17.490;2023-08-20T03:00:44;100653.04;;;19.87;87.72
77027;BME280;65956;52.986;17.490;2023-08-20T03:03:11;100648.11;;;19.88;87.76
77027;BME280;65956;52.986;17.490;2023-08-20T03:05:38;100641.96;;;19.88;87.65
77027;BME280;65956;52.986;17.490;2023-08-20T03:08:04;100643.06;;;19.88;87.59
77027;BME280;65956;52.986;17.490;2023-08-20T03:10:31;100638.06;;;19.88;87.78
77027;BME280;65956;52.986;17.490;2023-08-20T03:12:59;100639.29;;;19.88;87.32
77027;BME280;65956;52.986;17.490;2023-08-20T03:15:25;100635.02;;;19.87;87.23
77027;BME280;65956;52.986;17.490;2023-08-20T03:17:51;100634.35;;;19.88;87.10
77027;BME280;65956;52.986;17.490;2023-08-20T03:20:17;100632.42;;;19.88;86.99
77027;BME280;65956;52.986;17.490;2023-08-20T03:22:43;100635.51;;;19.86;87.17
77027;BME280;65956;52.986;17.490;2023-08-20T03:25:09;100638.49;;;19.87;87.13
77027;BME280;65956;52.986;17.490;2023-08-20T03:27:35;100639.84;;;19.88;86.95
77027;BME280;65956;52.986;17.490;2023-08-20T03:30:03;100641.35;;;19.89;86.69
77027;BME280;65956;52.986;17.490;2023-08-20T03:32:30;100641.19;;;19.89;86.62
77027;BME280;65956;52.986;17.490;2023-08-20T03:34:56;100645.92;;;19.87;86.45
77027;BME280;65956;52.986;17.490;2023-08-20T03:37:25;100645.86;;;19.85;86.67
77027;BME280;65956;52.986;17.490;2023-08-20T03:39:52;100647.27;;;19.83;86.92
77027;BME280;65956;52.986;17.490;2023-08-20T03:42:18;100646.25;;;19.82;87.01
77027;BME280;65956;52.986;17.490;2023-08-20T03:44:44;100647.95;;;19.82;87.22
77027;BME280;65956;52.986;17.490;2023-08-20T03:47:10;100644.87;;;19.83;87.39
77027;BME280;65956;52.986;17.490;2023-08-20T03:49:37;100641.45;;;19.83;87.57
77027;BME280;65956;52.986;17.490;2023-08-20T03:52:03;100637.70;;;19.84;87.46
77027;BME280;65956;52.986;17.490;2023-08-20T03:54:30;100638.99;;;19.85;87.25
77027;BME280;65956;52.986;17.490;2023-08-20T03:56:56;100635.27;;;19.86;87.29
77027;BME280;65956;52.986;17.490;2023-08-20T03:59:23;100633.89;;;19.87;87.30
77027;BME280;65956;52.986;17.490;2023-08-20T04:01:49;100635.72;;;19.88;87.12
77027;BME280;65956;52.986;17.490;2023-08-20T04:04:15;100636.58;;;19.90;87.12
77027;BME280;65956;52.986;17.490;2023-08-20T04:06:41;100639.79;;;19.93;86.87
77027;BME280;65956;52.986;17.490;2023-08-20T04:09:07;100641.11;;;19.95;86.83
77027;BME280;65956;52.986;17.490;2023-08-20T04:11:35;100645.26;;;19.99;86.51
77027;BME280;65956;52.986;17.490;2023-08-20T04:14:01;100644.98;;;20.05;86.42
77027;BME280;65956;52.986;17.490;2023-08-20T04:16:28;100651.29;;;20.10;86.14
77027;BME280;65956;52.986;17.490;2023-08-20T04:18:55;100653.83;;;20.13;86.11
77027;BME280;65956;52.986;17.490;2023-08-20T04:21:22;100656.30;;;20.15;85.90
77027;BME280;65956;52.986;17.490;2023-08-20T04:23:49;100661.42;;;20.18;85.74
77027;BME280;65956;52.986;17.490;2023-08-20T04:26:15;100662.82;;;20.21;85.72
77027;BME280;65956;52.986;17.490;2023-08-20T04:28:41;100663.87;;;20.27;85.69
77027;BME280;65956;52.986;17.490;2023-08-20T04:31:07;100668.20;;;20.35;85.45
77027;BME280;65956;52.986;17.490;2023-08-20T04:34:02;100669.55;;;20.46;84.74
77027;BME280;65956;52.986;17.490;2023-08-20T04:36:37;100669.83;;;20.57;84.15
77027;BME280;65956;52.986;17.490;2023-08-20T04:39:03;100669.98;;;20.66;84.05
77027;BME280;65956;52.986;17.490;2023-08-20T04:41:31;100669.58;;;20.75;83.68
77027;BME280;65956;52.986;17.490;2023-08-20T04:43:57;100676.27;;;20.85;83.43
77027;BME280;65956;52.986;17.490;2023-08-20T04:46:23;100674.29;;;20.96;83.32
77027;BME280;65956;52.986;17.490;2023-08-20T04:48:49;100681.18;;;21.08;83.31
77027;BME280;65956;52.986;17.490;2023-08-20T04:51:15;100684.23;;;21.19;83.28
77027;BME280;65956;52.986;17.490;2023-08-20T04:53:41;100685.38;;;21.30;83.22
77027;BME280;65956;52.986;17.490;2023-08-20T04:56:08;100685.89;;;21.40;83.09
77027;BME280;65956;52.986;17.490;2023-08-20T04:58:34;100690.20;;;21.50;83.10
77027;BME280;65956;52.986;17.490;2023-08-20T05:01:01;100693.66;;;21.62;82.65
77027;BME280;65956;52.986;17.490;2023-08-20T05:03:28;100694.48;;;21.73;82.10
77027;BME280;65956;52.986;17.490;2023-08-20T05:05:54;100687.88;;;21.85;81.76
77027;BME280;65956;52.986;17.490;2023-08-20T05:08:21;100683.80;;;21.97;80.99
77027;BME280;65956;52.986;17.490;2023-08-20T05:10:49;100682.48;;;22.09;80.43
77027;BME280;65956;52.986;17.490;2023-08-20T05:13:15;100690.39;;;22.20;79.73
77027;BME280;65956;52.986;17.490;2023-08-20T05:15:42;100694.71;;;22.33;78.78
77027;BME280;65956;52.986;17.490;2023-08-20T05:18:08;100693.02;;;22.45;77.71
77027;BME280;65956;52.986;17.490;2023-08-20T05:20:34;100694.98;;;22.53;77.28
77027;BME280;65956;52.986;17.490;2023-08-20T05:23:00;100694.54;;;22.62;77.62
77027;BME280;65956;52.986;17.490;2023-08-20T05:25:26;100698.52;;;22.68;77.24
77027;BME280;65956;52.986;17.490;2023-08-20T05:27:52;100700.64;;;22.75;77.31
77027;BME280;65956;52.986;17.490;2023-08-20T05:30:18;100700.52;;;22.82;77.29
77027;BME280;65956;52.986;17.490;2023-08-20T05:32:44;100706.66;;;22.89;76.79
77027;BME280;65956;52.986;17.490;2023-08-20T05:35:10;100705.41;;;22.96;76.34
77027;BME280;65956;52.986;17.490;2023-08-20T05:37:37;100706.34;;;23.04;75.84
77027;BME280;65956;52.986;17.490;2023-08-20T05:40:03;100706.34;;;23.12;75.74
77027;BME280;65956;52.986;17.490;2023-08-20T05:42:30;100710.58;;;23.20;75.65
77027;BME280;65956;52.986;17.490;2023-08-20T05:45:00;100711.11;;;23.30;75.11
77027;BME280;65956;52.986;17.490;2023-08-20T05:47:27;100713.46;;;23.42;74.56
77027;BME280;65956;52.986;17.490;2023-08-20T05:49:53;100712.46;;;23.55;74.20
77027;BME280;65956;52.986;17.490;2023-08-20T05:52:20;100712.98;;;23.67;73.41
77027;BME280;65956;52.986;17.490;2023-08-20T05:54:46;100715.78;;;23.79;73.87
77027;BME280;65956;52.986;17.490;2023-08-20T05:57:12;100719.28;;;23.92;73.06
77027;BME280;65956;52.986;17.490;2023-08-20T05:59:38;100720.48;;;24.06;73.45
77027;BME280;65956;52.986;17.490;2023-08-20T06:02:04;100721.73;;;24.18;72.22
77027;BME280;65956;52.986;17.490;2023-08-20T06:04:31;100712.68;;;24.31;72.52
77027;BME280;65956;52.986;17.490;2023-08-20T06:06:57;100715.00;;;24.48;72.45
77027;BME280;65956;52.986;17.490;2023-08-20T06:09:23;100720.29;;;24.57;70.62
77027;BME280;65956;52.986;17.490;2023-08-20T06:11:49;100722.73;;;24.59;70.33
77027;BME280;65956;52.986;17.490;2023-08-20T06:14:15;100722.46;;;24.60;70.57
77027;BME280;65956;52.986;17.490;2023-08-20T06:16:41;100723.36;;;24.62;71.36
77027;BME280;65956;52.986;17.490;2023-08-20T06:19:07;100721.09;;;24.69;71.22
77027;BME280;65956;52.986;17.490;2023-08-20T06:21:33;100721.31;;;24.77;71.67
77027;BME280;65956;52.986;17.490;2023-08-20T06:24:00;100717.46;;;24.92;71.21
77027;BME280;65956;52.986;17.490;2023-08-20T06:26:26;100718.99;;;25.04;70.09
77027;BME280;65956;52.986;17.490;2023-08-20T06:28:52;100715.53;;;25.09;69.75
77027;BME280;65956;52.986;17.490;2023-08-20T06:31:18;100711.91;;;25.20;70.20
77027;BME280;65956;52.986;17.490;2023-08-20T06:33:44;100712.58;;;25.34;70.56
77027;BME280;65956;52.986;17.490;2023-08-20T06:36:10;100711.50;;;25.53;69.45
77027;BME280;65956;52.986;17.490;2023-08-20T06:38:36;100716.90;;;25.69;69.32
77027;BME280;65956;52.986;17.490;2023-08-20T06:41:02;100714.38;;;25.82;68.35
77027;BME280;65956;52.986;17.490;2023-08-20T06:43:28;100715.23;;;25.93;67.92
77027;BME280;65956;52.986;17.490;2023-08-20T06:45:54;100716.04;;;26.08;67.51
77027;BME280;65956;52.986;17.490;2023-08-20T06:48:20;100715.33;;;26.20;67.60
77027;BME280;65956;52.986;17.490;2023-08-20T06:50:47;100713.66;;;26.35;67.34
77027;BME280;65956;52.986;17.490;2023-08-20T06:53:14;100719.98;;;26.49;66.53
77027;BME280;65956;52.986;17.490;2023-08-20T06:55:40;100724.02;;;26.58;66.44
77027;BME280;65956;52.986;17.490;2023-08-20T06:58:06;100721.73;;;26.64;65.95
77027;BME280;65956;52.986;17.490;2023-08-20T07:00:33;100728.15;;;26.66;66.09
77027;BME280;65956;52.986;17.490;2023-08-20T07:02:58;100724.63;;;26.75;65.78
77027;BME280;65956;52.986;17.490;2023-08-20T07:05:25;100722.90;;;26.84;65.49
77027;BME280;65956;52.986;17.490;2023-08-20T07:07:51;100726.11;;;26.88;65.34
77027;BME280;65956;52.986;17.490;2023-08-20T07:10:17;100735.74;;;26.98;65.26
77027;BME280;65956;52.986;17.490;2023-08-20T07:12:43;100740.64;;;27.02;64.28
77027;BME280;65956;52.986;17.490;2023-08-20T07:15:11;100745.52;;;26.99;64.01
77027;BME280;65956;52.986;17.490;2023-08-20T07:17:37;100744.33;;;26.97;64.62
77027;BME280;65956;52.986;17.490;2023-08-20T07:20:05;100740.42;;;27.05;64.57
77027;BME280;65956;52.986;17.490;2023-08-20T07:22:32;100743.16;;;27.15;64.37
77027;BME280;65956;52.986;17.490;2023-08-20T07:24:59;100746.44;;;27.24;63.88
77027;BME280;65956;52.986;17.490;2023-08-20T07:27:25;100743.55;;;27.34;62.94
77027;BME280;65956;52.986;17.490;2023-08-20T07:29:51;100746.72;;;27.45;62.51
77027;BME280;65956;52.986;17.490;2023-08-20T07:32:17;100749.69;;;27.57;61.36
77027;BME280;65956;52.986;17.490;2023-08-20T07:34:43;100750.05;;;27.69;60.99
77027;BME280;65956;52.986;17.490;2023-08-20T07:37:09;100743.60;;;27.80;60.25
77027;BME280;65956;52.986;17.490;2023-08-20T07:39:35;100746.04;;;27.97;60.18
77027;BME280;65956;52.986;17.490;2023-08-20T07:42:01;100745.63;;;28.10;58.83
77027;BME280;65956;52.986;17.490;2023-08-20T07:44:27;100745.60;;;28.17;58.62
77027;BME280;65956;52.986;17.490;2023-08-20T07:46:54;100745.70;;;28.27;58.34
77027;BME280;65956;52.986;17.490;2023-08-20T07:49:20;100741.72;;;28.44;58.25
77027;BME280;65956;52.986;17.490;2023-08-20T07:51:45;100738.65;;;28.57;57.17
77027;BME280;65956;52.986;17.490;2023-08-20T07:54:11;100733.14;;;28.76;57.00
77027;BME280;65956;52.986;17.490;2023-08-20T07:56:37;100734.84;;;28.97;56.06
77027;BME280;65956;52.986;17.490;2023-08-20T07:59:03;100735.30;;;29.19;55.37
77027;BME280;65956;52.986;17.490;2023-08-20T08:01:29;100737.26;;;29.27;55.08
77027;BME280;65956;52.986;17.490;2023-08-20T08:03:55;100737.91;;;29.38;54.24
77027;BME280;65956;52.986;17.490;2023-08-20T08:06:21;100736.79;;;29.50;54.13
77027;BME280;65956;52.986;17.490;2023-08-20T08:08:49;100740.20;;;29.70;53.66
77027;BME280;65956;52.986;17.490;2023-08-20T08:11:15;100743.78;;;29.86;52.81
77027;BME280;65956;52.986;17.490;2023-08-20T08:13:41;100743.44;;;29.89;52.80
77027;BME280;65956;52.986;17.490;2023-08-20T08:16:07;100747.55;;;29.87;52.28
77027;BME280;65956;52.986;17.490;2023-08-20T08:18:33;100748.13;;;29.91;52.66
77027;BME280;65956;52.986;17.490;2023-08-20T08:20:59;100748.36;;;29.84;52.09
77027;BME280;65956;52.986;17.490;2023-08-20T08:23:25;100749.97;;;29.73;52.84
77027;BME280;65956;52.986;17.490;2023-08-20T08:25:51;100750.06;;;29.62;52.53
77027;BME280;65956;52.986;17.490;2023-08-20T08:28:17;100748.05;;;29.49;52.84
77027;BME280;65956;52.986;17.490;2023-08-20T08:30:43;100748.52;;;29.41;52.97
77027;BME280;65956;52.986;17.490;2023-08-20T08:33:09;100751.67;;;29.34;52.74
77027;BME280;65956;52.986;17.490;2023-08-20T08:35:35;100755.09;;;29.30;51.91
77027;BME280;65956;52.986;17.490;2023-08-20T08:38:01;100756.80;;;29.28;51.89
77027;BME280;65956;52.986;17.490;2023-08-20T08:40:29;100759.45;;;29.28;52.44
77027;BME280;65956;52.986;17.490;2023-08-20T08:42:56;100755.35;;;29.40;52.78
77027;BME280;65956;52.986;17.490;2023-08-20T08:45:22;100759.35;;;29.42;52.16
77027;BME280;65956;52.986;17.490;2023-08-20T08:47:49;100760.63;;;29.40;52.24
77027;BME280;65956;52.986;17.490;2023-08-20T08:50:15;100761.96;;;29.47;52.24
77027;BME280;65956;52.986;17.490;2023-08-20T08:52:41;100763.46;;;29.63;52.23
77027;BME280;65956;52.986;17.490;2023-08-20T08:55:07;100762.27;;;29.81;51.96
77027;BME280;65956;52.986;17.490;2023-08-20T08:57:36;100758.25;;;29.94;51.23
77027;BME280;65956;52.986;17.490;2023-08-20T09:00:02;100759.29;;;29.99;51.84
77027;BME280;65956;52.986;17.490;2023-08-20T09:02:29;100758.96;;;30.07;51.10
77027;BME280;65956;52.986;17.490;2023-08-20T09:04:56;100760.44;;;30.18;50.96
77027;BME280;65956;52.986;17.490;2023-08-20T09:07:22;100759.83;;;30.28;50.77
77027;BME280;65956;52.986;17.490;2023-08-20T09:09:48;100762.90;;;30.33;50.65
77027;BME280;65956;52.986;17.490;2023-08-20T09:12:16;100763.14;;;30.32;50.23
77027;BME280;65956;52.986;17.490;2023-08-20T09:14:50;100762.83;;;30.23;50.24
77027;BME280;65956;52.986;17.490;2023-08-20T09:17:17;100760.63;;;30.29;50.78
77027;BME280;65956;52.986;17.490;2023-08-20T09:19:45;100764.02;;;30.53;50.41
77027;BME280;65956;52.986;17.490;2023-08-20T09:22:14;100764.23;;;30.72;49.85
77027;BME280;65956;52.986;17.490;2023-08-20T09:24:55;100766.92;;;30.80;49.55
77027;BME280;65956;52.986;17.490;2023-08-20T09:27:22;100770.08;;;30.85;48.39
77027;BME280;65956;52.986;17.490;2023-08-20T09:29:50;100771.06;;;30.77;49.23
77027;BME280;65956;52.986;17.490;2023-08-20T09:32:21;100768.91;;;30.84;48.58
77027;BME280;65956;52.986;17.490;2023-08-20T09:34:49;100773.34;;;30.86;48.78
77027;BME280;65956;52.986;17.490;2023-08-20T09:37:16;100773.79;;;30.96;48.13
77027;BME280;65956;52.986;17.490;2023-08-20T09:39:43;100774.14;;;31.03;47.73
77027;BME280;65956;52.986;17.490;2023-08-20T09:42:10;100769.71;;;31.13;47.30
77027;BME280;65956;52.986;17.490;2023-08-20T09:44:38;100774.30;;;31.24;47.32
77027;BME280;65956;52.986;17.490;2023-08-20T09:47:09;100779.04;;;31.39;46.87
77027;BME280;65956;52.986;17.490;2023-08-20T09:49:40;100777.43;;;31.50;46.12
77027;BME280;65956;52.986;17.490;2023-08-20T09:52:09;100777.54;;;31.66;45.71
77027;BME280;65956;52.986;17.490;2023-08-20T09:54:56;100776.13;;;31.67;45.90
77027;BME280;65956;52.986;17.490;2023-08-20T09:57:38;100774.88;;;31.67;45.66
77027;BME280;65956;52.986;17.490;2023-08-20T10:00:06;100774.09;;;31.58;45.76
77027;BME280;65956;52.986;17.490;2023-08-20T10:02:43;100773.95;;;31.48;45.56
77027;BME280;65956;52.986;17.490;2023-08-20T10:05:10;100774.09;;;31.47;46.22
77027;BME280;65956;52.986;17.490;2023-08-20T10:07:37;100771.85;;;31.52;46.11
77027;BME280;65956;52.986;17.490;2023-08-20T10:10:08;100773.33;;;31.55;45.99
77027;BME280;65956;52.986;17.490;2023-08-20T10:12:36;100773.66;;;31.50;46.45
77027;BME280;65956;52.986;17.490;2023-08-20T10:15:10;100766.84;;;31.37;45.92
77027;BME280;65956;52.986;17.490;2023-08-20T10:17:37;100768.40;;;31.21;46.53
77027;BME280;65956;52.986;17.490;2023-08-20T10:20:04;100756.74;;;31.06;46.88
77027;BME280;65956;52.986;17.490;2023-08-20T10:22:36;100756.28;;;31.00;47.37
77027;BME280;65956;52.986;17.490;2023-08-20T10:25:09;100755.26;;;31.01;47.27
77027;BME280;65956;52.986;17.490;2023-08-20T10:27:41;100752.65;;;30.92;46.95
77027;BME280;65956;52.986;17.490;2023-08-20T10:30:16;100748.91;;;30.83;46.95
77027;BME280;65956;52.986;17.490;2023-08-20T10:32:50;100749.34;;;30.84;47.15
77027;BME280;65956;52.986;17.490;2023-08-20T10:35:26;100748.40;;;30.87;47.49
77027;BME280;65956;52.986;17.490;2023-08-20T10:38:03;100747.75;;;30.97;47.62
77027;BME280;65956;52.986;17.490;2023-08-20T10:48:35;100739.25;;;31.41;46.24
77027;BME280;65956;52.986;17.490;2023-08-20T10:53:36;100733.92;;;31.65;45.31
77027;BME280;65956;52.986;17.490;2023-08-20T10:58:34;100732.71;;;31.98;44.43
77027;BME280;65956;52.986;17.490;2023-08-20T11:01:19;100731.13;;;32.13;44.23
77027;BME280;65956;52.986;17.490;2023-08-20T11:03:46;100733.02;;;32.47;44.05
77027;BME280;65956;52.986;17.490;2023-08-20T11:06:12;100732.23;;;32.68;42.73
77027;BME280;65956;52.986;17.490;2023-08-20T11:08:39;100736.75;;;32.87;42.04
77027;BME280;65956;52.986;17.490;2023-08-20T11:11:06;100736.02;;;33.09;41.64
77027;BME280;65956;52.986;17.490;2023-08-20T11:13:34;100732.52;;;33.40;40.60
77027;BME280;65956;52.986;17.490;2023-08-20T11:16:04;100731.50;;;33.55;40.41
77027;BME280;65956;52.986;17.490;2023-08-20T11:18:34;100725.77;;;33.75;40.74
77027;BME280;65956;52.986;17.490;2023-08-20T11:21:01;100727.60;;;34.02;40.24
77027;BME280;65956;52.986;17.490;2023-08-20T11:23:28;100723.80;;;34.11;39.50
77027;BME280;65956;52.986;17.490;2023-08-20T11:25:54;100733.77;;;34.21;38.97
77027;BME280;65956;52.986;17.490;2023-08-20T11:28:20;100732.38;;;34.44;39.14
77027;BME280;65956;52.986;17.490;2023-08-20T11:30:47;100729.33;;;34.76;38.80
77027;BME280;65956;52.986;17.490;2023-08-20T11:33:13;100724.30;;;34.94;38.15
77027;BME280;65956;52.986;17.490;2023-08-20T11:35:40;100728.14;;;35.15;37.10
77027;BME280;65956;52.986;17.490;2023-08-20T11:38:06;100728.80;;;35.42;37.18
77027;BME280;65956;52.986;17.490;2023-08-20T11:40:32;100722.86;;;35.66;36.92
77027;BME280;65956;52.986;17.490;2023-08-20T11:42:59;100728.58;;;35.88;36.50
77027;BME280;65956;52.986;17.490;2023-08-20T11:45:25;100723.45;;;35.94;35.85
77027;BME280;65956;52.986;17.490;2023-08-20T11:47:56;100723.64;;;35.68;35.20
77027;BME280;65956;52.986;17.490;2023-08-20T11:50:23;100727.78;;;35.44;35.65
77027;BME280;65956;52.986;17.490;2023-08-20T11:52:52;100725.59;;;35.75;35.61
77027;BME280;65956;52.986;17.490;2023-08-20T11:55:24;100721.52;;;35.78;34.73
77027;BME280;65956;52.986;17.490;2023-08-20T11:57:52;100722.33;;;35.83;35.37
77027;BME280;65956;52.986;17.490;2023-08-20T12:00:25;100712.56;;;35.98;35.08
77027;BME280;65956;52.986;17.490;2023-08-20T12:02:53;100708.03;;;36.21;35.84
77027;BME280;65956;52.986;17.490;2023-08-20T12:05:30;100705.50;;;36.59;35.05
77027;BME280;65956;52.986;17.490;2023-08-20T12:08:02;100704.47;;;36.63;34.76
77027;BME280;65956;52.986;17.490;2023-08-20T12:10:32;100706.29;;;36.39;34.18
77027;BME280;65956;52.986;17.490;2023-08-20T12:12:58;100704.78;;;36.26;34.98
77027;BME280;65956;52.986;17.490;2023-08-20T12:15:25;100704.16;;;36.20;35.02
77027;BME280;65956;52.986;17.490;2023-08-20T12:18:04;100699.52;;;36.19;34.74
77027;BME280;65956;52.986;17.490;2023-08-20T12:20:32;100694.83;;;36.29;34.79
77027;BME280;65956;52.986;17.490;2023-08-20T12:23:01;100689.29;;;36.39;34.79
77027;BME280;65956;52.986;17.490;2023-08-20T12:25:31;100687.82;;;36.68;34.65
77027;BME280;65956;52.986;17.490;2023-08-20T12:27:58;100684.83;;;36.77;33.99
77027;BME280;65956;52.986;17.490;2023-08-20T12:30:23;100690.09;;;36.65;33.89
77027;BME280;65956;52.986;17.490;2023-08-20T12:32:49;100688.20;;;36.78;33.24
77027;BME280;65956;52.986;17.490;2023-08-20T12:35:15;100684.33;;;37.61;32.39
77027;BME280;65956;52.986;17.490;2023-08-20T12:37:41;100684.73;;;39.31;30.65
77027;BME280;65956;52.986;17.490;2023-08-20T12:40:08;100682.02;;;40.53;28.74
77027;BME280;65956;52.986;17.490;2023-08-20T12:42:37;100674.70;;;41.33;27.74
77027;BME280;65956;52.986;17.490;2023-08-20T12:45:08;100670.36;;;41.96;26.49
77027;BME280;65956;52.986;17.490;2023-08-20T12:47:36;100669.20;;;42.92;26.38
77027;BME280;65956;52.986;17.490;2023-08-20T12:50:02;100671.14;;;43.49;24.31
77027;BME280;65956;52.986;17.490;2023-08-20T12:52:31;100661.77;;;43.54;23.66
77027;BME280;65956;52.986;17.490;2023-08-20T12:54:57;100665.23;;;43.91;23.90
77027;BME280;65956;52.986;17.490;2023-08-20T12:57:23;100660.02;;;44.30;23.00
77027;BME280;65956;52.986;17.490;2023-08-20T12:59:49;100659.69;;;44.15;23.24